Time,TemperatureF,DewpointF,PressureIn,WindDirection,WindDirectionDegrees,WindSpeedMPH,WindSpeedGustMPH,Humidity,HourlyPrecipIn,Conditions,Clouds,dailyrainin,SoftwareType,DateUTC
2013-07-17 00:00:00,70.7,46.5,29.98,NNE,29,0.0,3.1,42,0.00,,---,0.00,VWS V14.01,2013-07-17 07:00:00,
2013-07-17 00:03:00,70.9,46.7,29.98,NNE,29,0.0,0.0,42,0.00,,---,0.00,VWS V14.01,2013-07-17 07:03:00,
2013-07-17 00:05:00,66.4,50.7,29.95,SSW,202,2.2,3.6,57,0.00,,---,0.00,VWS V14.01,2013-07-17 07:05:00,
2013-07-17 00:09:00,71.8,46.8,29.98,NNE,29,0.0,0.0,41,0.00,,---,0.00,VWS V14.01,2013-07-17 07:09:00,
2013-07-17 00:10:00,66.4,50.7,29.95,SSW,203,0.0,3.1,57,0.00,,---,0.00,VWS V14.01,2013-07-17 07:10:00,
2013-07-17 00:15:00,71.4,47.2,29.98,North,11,0.0,0.0,42,0.00,,---,0.00,VWS V14.01,2013-07-17 07:15:00,
2013-07-17 00:19:00,66.6,50.4,29.95,SSW,205,0.0,3.1,56,0.00,,---,0.00,VWS V14.01,2013-07-17 07:19:00,
2013-07-17 00:20:00,70.7,46.5,29.98,NNE,18,0.0,2.7,42,0.00,,---,0.00,VWS V14.01,2013-07-17 07:20:00,
2013-07-17 00:25:00,66.4,50.7,29.95,SSW,205,0.0,0.0,57,0.00,,---,0.00,VWS V14.01,2013-07-17 07:25:00,
2013-07-17 00:30:00,66.6,50.4,29.95,SSW,205,3.6,3.6,56,0.00,,---,0.00,VWS V14.01,2013-07-17 07:30:00,
2013-07-17 00:35:00,66.4,50.7,29.95,SSW,206,2.7,3.6,57,0.00,,---,0.00,VWS V14.01,2013-07-17 07:35:00,
2013-07-17 00:40:00,66.4,50.2,29.95,SSW,210,0.0,3.1,56,0.00,,---,0.00,VWS V14.01,2013-07-17 07:40:00,
2013-07-17 00:43:00,70.7,46.5,29.98,NNE,30,0.0,0.0,42,0.00,,---,0.00,VWS V14.01,2013-07-17 07:43:00,
2013-07-17 00:45:00,70.3,46.2,29.98,NNE,19,3.1,3.1,42,0.00,,---,0.00,VWS V14.01,2013-07-17 07:45:00,
2013-07-17 00:47:00,66.2,50.5,29.95,SSW,210,0.0,0.0,57,0.00,,---,0.00,VWS V14.01,2013-07-17 07:47:00,
2013-07-17 00:50:00,69.4,45.4,29.98,NNE,13,3.1,4.0,42,0.00,,---,0.00,VWS V14.01,2013-07-17 07:50:00,
2013-07-17 00:53:00,65.8,50.2,29.95,SSW,209,0.0,3.1,57,0.00,,---,0.00,VWS V14.01,2013-07-17 07:53:00,
2013-07-17 00:55:00,69.3,45.8,29.98,NNE,30,2.7,3.6,43,0.00,,---,0.00,VWS V14.01,2013-07-17 07:55:00,
2013-07-17 00:59:00,65.7,50.5,29.95,SSW,209,0.0,0.0,58,0.00,,---,0.00,VWS V14.01,2013-07-17 07:59:00,
2013-07-17 01:00:00,69.3,46.4,29.98,NNE,19,2.2,4.0,44,0.00,,---,0.00,VWS V14.01,2013-07-17 08:00:00,
2013-07-17 01:05:00,65.5,50.3,29.95,SSW,208,0.0,0.0,58,0.00,,---,0.00,VWS V14.01,2013-07-17 08:05:00,
2013-07-17 01:10:00,65.1,50.0,29.95,SSW,208,0.0,0.0,58,0.00,,---,0.00,VWS V14.01,2013-07-17 08:10:00,
2013-07-17 01:15:00,68.7,46.0,29.98,NE,41,2.7,3.6,44,0.00,,---,0.00,VWS V14.01,2013-07-17 08:15:00,
2013-07-17 01:17:00,65.1,50.5,29.95,SSW,208,0.0,0.0,59,0.00,,---,0.00,VWS V14.01,2013-07-17 08:17:00,
2013-07-17 01:20:00,68.7,46.0,29.98,NNE,22,4.9,4.9,44,0.00,,---,0.00,VWS V14.01,2013-07-17 08:20:00,
2013-07-17 01:23:00,65.1,50.0,29.95,South,173,0.0,3.1,58,0.00,,---,0.00,VWS V14.01,2013-07-17 08:23:00,
2013-07-17 01:25:00,68.7,45.3,29.98,NNE,16,3.6,4.9,43,0.00,,---,0.00,VWS V14.01,2013-07-17 08:25:00,
2013-07-17 01:29:00,64.9,50.3,29.95,South,173,0.0,0.0,59,0.00,,---,0.00,VWS V14.01,2013-07-17 08:29:00,
2013-07-17 01:30:00,68.4,45.0,29.98,North,9,0.0,4.9,43,0.00,,---,0.00,VWS V14.01,2013-07-17 08:30:00,
2013-07-17 01:35:00,65.1,50.5,29.95,SSW,197,0.0,0.0,59,0.00,,---,0.00,VWS V14.01,2013-07-17 08:35:00,
2013-07-17 01:40:00,65.1,50.0,29.95,SSW,197,0.0,0.0,58,0.00,,---,0.00,VWS V14.01,2013-07-17 08:40:00,
2013-07-17 01:45:00,64.9,50.3,29.95,SSW,193,0.0,0.0,59,0.00,,---,0.00,VWS V14.01,2013-07-17 08:45:00,
2013-07-17 01:50:00,68.2,45.5,29.95,NNE,32,3.1,4.0,44,0.00,,---,0.00,VWS V14.01,2013-07-17 08:50:00,
2013-07-17 01:51:00,65.1,50.5,29.95,SSW,193,0.0,0.0,59,0.00,,---,0.00,VWS V14.01,2013-07-17 08:51:00,
2013-07-17 01:55:00,68.0,45.3,29.95,NNE,22,4.9,4.9,44,0.00,,---,0.00,VWS V14.01,2013-07-17 08:55:00,
2013-07-17 01:57:00,65.1,50.0,29.95,SSW,198,0.0,0.0,58,0.00,,---,0.00,VWS V14.01,2013-07-17 08:57:00,
2013-07-17 02:00:00,67.8,45.7,29.95,NE,49,3.1,5.8,45,0.00,,---,0.00,VWS V14.01,2013-07-17 09:00:00,
2013-07-17 02:03:00,64.8,49.7,29.95,SSW,198,0.0,0.0,58,0.00,,---,0.00,VWS V14.01,2013-07-17 09:03:00,
2013-07-17 02:05:00,67.6,45.6,29.95,NE,52,3.1,5.4,45,0.00,,---,0.00,VWS V14.01,2013-07-17 09:05:00,
2013-07-17 02:09:00,64.4,49.3,29.95,SSE,162,0.0,0.0,58,0.00,,---,0.00,VWS V14.01,2013-07-17 09:09:00,
2013-07-17 02:10:00,67.6,45.6,29.95,NE,34,5.4,5.8,45,0.00,,---,0.00,VWS V14.01,2013-07-17 09:10:00,
2013-07-17 02:15:00,64.2,49.6,29.95,SSE,162,0.0,0.0,59,0.00,,---,0.00,VWS V14.01,2013-07-17 09:15:00,
2013-07-17 02:20:00,64.0,49.4,29.95,SSE,162,0.0,0.0,59,0.00,,---,0.00,VWS V14.01,2013-07-17 09:20:00,
2013-07-17 02:25:00,64.0,49.9,29.95,SSE,158,0.0,0.0,60,0.00,,---,0.00,VWS V14.01,2013-07-17 09:25:00,
2013-07-17 02:30:00,67.5,45.4,29.95,NE,38,2.7,4.9,45,0.00,,---,0.00,VWS V14.01,2013-07-17 09:30:00,
2013-07-17 02:31:00,64.0,49.9,29.95,SSE,158,0.0,0.0,60,0.00,,---,0.00,VWS V14.01,2013-07-17 09:31:00,
2013-07-17 02:35:00,67.6,45.0,29.95,NNE,31,2.7,4.9,44,0.00,,---,0.00,VWS V14.01,2013-07-17 09:35:00,
2013-07-17 02:37:00,64.2,50.1,29.95,SSE,158,0.0,0.0,60,0.00,,---,0.00,VWS V14.01,2013-07-17 09:37:00,
2013-07-17 02:40:00,67.8,45.1,29.95,North,8,4.0,5.4,44,0.00,,---,0.00,VWS V14.01,2013-07-17 09:40:00,
2013-07-17 02:43:00,64.2,49.6,29.95,SSE,158,0.0,0.0,59,0.00,,---,0.00,VWS V14.01,2013-07-17 09:43:00,
2013-07-17 02:45:00,67.8,45.1,29.95,NE,48,3.6,6.3,44,0.00,,---,0.00,VWS V14.01,2013-07-17 09:45:00,
2013-07-17 02:49:00,64.0,49.9,29.95,SSE,155,0.0,0.0,60,0.00,,---,0.00,VWS V14.01,2013-07-17 09:49:00,
2013-07-17 02:50:00,68.0,45.3,29.95,NE,51,5.4,5.4,44,0.00,,---,0.00,VWS V14.01,2013-07-17 09:50:00,
2013-07-17 02:55:00,63.9,49.7,29.95,NE,40,0.0,0.0,60,0.00,,---,0.00,VWS V14.01,2013-07-17 09:55:00,
2013-07-17 03:00:00,67.8,45.7,29.95,NE,51,2.7,6.3,45,0.00,,---,0.00,VWS V14.01,2013-07-17 10:00:00,
2013-07-17 03:01:00,62.8,49.6,29.95,NE,41,0.0,0.0,62,0.00,,---,0.00,VWS V14.01,2013-07-17 10:01:00,
2013-07-17 03:05:00,67.6,45.6,29.95,NE,55,3.6,6.3,45,0.00,,---,0.00,VWS V14.01,2013-07-17 10:05:00,
2013-07-17 03:07:00,62.4,50.1,29.95,NE,41,0.0,0.0,64,0.00,,---,0.00,VWS V14.01,2013-07-17 10:07:00,
2013-07-17 03:10:00,67.6,45.0,29.95,NE,53,3.6,6.3,44,0.00,,---,0.00,VWS V14.01,2013-07-17 10:10:00,
2013-07-17 03:13:00,62.6,50.3,29.95,NE,41,0.0,0.0,64,0.00,,---,0.00,VWS V14.01,2013-07-17 10:13:00,
2013-07-17 03:15:00,67.6,45.0,29.95,NNE,33,4.9,4.9,44,0.00,,---,0.00,VWS V14.01,2013-07-17 10:15:00,
2013-07-17 03:19:00,62.6,50.7,29.95,NE,41,0.0,0.0,65,0.00,,---,0.00,VWS V14.01,2013-07-17 10:19:00,
2013-07-17 03:20:00,67.8,45.1,29.95,NNE,23,2.7,7.6,44,0.00,,---,0.00,VWS V14.01,2013-07-17 10:20:00,
2013-07-17 03:25:00,63.0,50.6,29.95,NE,41,0.0,0.0,64,0.00,,---,0.00,VWS V14.01,2013-07-17 10:25:00,
2013-07-17 03:30:00,63.0,50.6,29.95,NE,41,0.0,0.0,64,0.00,,---,0.00,VWS V14.01,2013-07-17 10:30:00,
2013-07-17 03:35:00,67.6,45.6,29.95,North,10,5.4,6.3,45,0.00,,---,0.00,VWS V14.01,2013-07-17 10:35:00,
2013-07-17 03:40:00,67.5,45.4,29.95,NE,38,5.8,6.3,45,0.00,,---,0.00,VWS V14.01,2013-07-17 10:40:00,
2013-07-17 03:45:00,67.3,45.2,29.95,NNE,31,5.4,8.1,45,0.00,,---,0.00,VWS V14.01,2013-07-17 10:45:00,
2013-07-17 03:50:00,67.3,45.2,29.95,ENE,68,4.0,6.3,45,0.00,,---,0.00,VWS V14.01,2013-07-17 10:50:00,
2013-07-17 03:55:00,67.3,45.2,29.95,North,0,5.4,6.3,45,0.00,,---,0.00,VWS V14.01,2013-07-17 10:55:00,
2013-07-17 04:00:00,67.3,45.2,29.95,ENE,58,3.6,7.6,45,0.00,,---,0.00,VWS V14.01,2013-07-17 11:00:00,
2013-07-17 04:05:00,67.3,45.2,29.95,North,9,5.4,6.3,45,0.00,,---,0.00,VWS V14.01,2013-07-17 11:05:00,
2013-07-17 04:10:00,67.5,45.4,29.95,NNE,16,5.4,6.3,45,0.00,,---,0.00,VWS V14.01,2013-07-17 11:10:00,
2013-07-17 04:15:00,66.9,45.5,29.95,NE,56,5.4,7.6,46,0.00,,---,0.00,VWS V14.01,2013-07-17 11:15:00,
2013-07-17 04:20:00,66.7,45.3,29.95,NNE,19,2.7,7.6,46,0.00,,---,0.00,VWS V14.01,2013-07-17 11:20:00,
2013-07-17 04:25:00,66.9,45.5,29.95,NNE,27,4.0,6.3,46,0.00,,---,0.00,VWS V14.01,2013-07-17 11:25:00,
2013-07-17 04:30:00,66.9,44.9,29.95,NNE,20,5.8,6.3,45,0.00,,---,0.00,VWS V14.01,2013-07-17 11:30:00,
2013-07-17 04:35:00,66.7,45.3,29.95,NE,48,4.0,6.3,46,0.00,,---,0.00,VWS V14.01,2013-07-17 11:35:00,
2013-07-17 04:40:00,66.7,45.3,29.95,NE,50,5.4,6.3,46,0.00,,---,0.00,VWS V14.01,2013-07-17 11:40:00,
2013-07-17 04:45:00,66.7,45.3,29.95,NE,39,4.0,6.3,46,0.00,,---,0.00,VWS V14.01,2013-07-17 11:45:00,
2013-07-17 04:50:00,66.7,44.7,29.95,ENE,58,4.9,6.3,45,0.00,,---,0.00,VWS V14.01,2013-07-17 11:50:00,
2013-07-17 04:55:00,66.7,45.3,29.95,ENE,69,3.6,5.8,46,0.00,,---,0.00,VWS V14.01,2013-07-17 11:55:00,
2013-07-17 05:00:00,66.7,45.3,29.95,NNE,21,4.0,6.3,46,0.00,,---,0.00,VWS V14.01,2013-07-17 12:00:00,
2013-07-17 05:05:00,66.7,45.3,29.95,NE,44,5.4,6.3,46,0.00,,---,0.00,VWS V14.01,2013-07-17 12:05:00,
2013-07-17 05:10:00,66.7,45.3,29.95,NNE,31,4.0,5.8,46,0.00,,---,0.00,VWS V14.01,2013-07-17 12:10:00,
2013-07-17 05:15:00,66.7,45.3,29.95,ENE,60,4.9,5.8,46,0.00,,---,0.00,VWS V14.01,2013-07-17 12:15:00,
2013-07-17 05:20:00,66.4,45.6,29.95,ENE,63,4.0,8.1,47,0.00,,---,0.00,VWS V14.01,2013-07-17 12:20:00,
2013-07-17 05:25:00,66.0,45.8,29.95,NE,45,4.9,6.3,48,0.00,,---,0.00,VWS V14.01,2013-07-17 12:25:00,
2013-07-17 05:30:00,65.8,46.2,29.95,NE,48,3.6,6.3,49,0.00,,---,0.00,VWS V14.01,2013-07-17 12:30:00,
2013-07-17 05:35:00,66.0,45.8,29.95,NNE,31,3.6,5.8,48,0.00,,---,0.00,VWS V14.01,2013-07-17 12:35:00,
2013-07-17 05:40:00,66.2,46.0,29.95,NE,48,2.7,5.8,48,0.00,,---,0.00,VWS V14.01,2013-07-17 12:40:00,
2013-07-17 05:45:00,66.0,45.8,29.95,NE,37,3.1,5.4,48,0.00,,---,0.00,VWS V14.01,2013-07-17 12:45:00,
2013-07-17 05:48:00,59.5,49.4,29.98,NNE,17,0.0,0.0,69,0.00,,---,0.00,VWS V14.01,2013-07-17 12:48:00,
2013-07-17 05:50:00,66.0,46.3,29.95,NE,37,4.0,6.3,49,0.00,,---,0.00,VWS V14.01,2013-07-17 12:50:00,
2013-07-17 05:54:00,59.5,49.4,29.98,NNE,17,0.0,0.0,69,0.00,,---,0.00,VWS V14.01,2013-07-17 12:54:00,
2013-07-17 05:55:00,66.0,45.8,29.95,NNE,24,2.7,8.1,48,0.00,,---,0.00,VWS V14.01,2013-07-17 12:55:00,
2013-07-17 06:00:00,58.6,48.9,29.98,NE,38,2.2,2.2,70,0.00,,---,0.00,VWS V14.01,2013-07-17 13:00:00,
2013-07-17 06:05:00,65.8,45.6,29.95,NNE,33,3.1,5.8,48,0.00,,---,0.00,VWS V14.01,2013-07-17 13:05:00,
2013-07-17 06:08:00,58.8,50.2,29.98,NE,34,2.7,3.1,73,0.00,,---,0.00,VWS V14.01,2013-07-17 13:08:00,
2013-07-17 06:10:00,65.8,45.6,29.95,NNE,30,0.0,4.9,48,0.00,,---,0.00,VWS V14.01,2013-07-17 13:10:00,
2013-07-17 06:14:00,58.1,50.2,29.98,NNE,32,0.0,4.0,75,0.00,,---,0.00,VWS V14.01,2013-07-17 13:14:00,
2013-07-17 06:15:00,66.0,45.8,29.95,NNE,23,0.0,3.6,48,0.00,,---,0.00,VWS V14.01,2013-07-17 13:15:00,
2013-07-17 06:19:00,57.6,50.4,29.98,NNE,32,0.0,0.0,77,0.00,,---,0.00,VWS V14.01,2013-07-17 13:19:00,
2013-07-17 06:20:00,66.4,46.1,29.95,North,0,2.2,4.0,48,0.00,,---,0.00,VWS V14.01,2013-07-17 13:20:00,
2013-07-17 06:25:00,66.6,46.8,29.95,North,357,0.0,3.1,49,0.00,,---,0.00,VWS V14.01,2013-07-17 13:25:00,
2013-07-17 06:26:00,59.2,52.0,29.98,NNE,32,0.0,2.2,77,0.00,,---,0.00,VWS V14.01,2013-07-17 13:26:00,
2013-07-17 06:30:00,67.5,47.1,29.95,NNE,12,0.0,0.0,48,0.00,,---,0.00,VWS V14.01,2013-07-17 13:30:00,
2013-07-17 06:32:00,59.0,51.1,29.98,NNE,30,3.6,3.6,75,0.00,,---,0.00,VWS V14.01,2013-07-17 13:32:00,
2013-07-17 06:35:00,67.8,46.9,29.95,North,6,3.1,4.0,47,0.00,,---,0.00,VWS V14.01,2013-07-17 13:35:00,
2013-07-17 06:38:00,58.8,51.6,29.98,NNE,18,2.7,4.0,77,0.00,,---,0.00,VWS V14.01,2013-07-17 13:38:00,
2013-07-17 06:40:00,68.0,46.5,29.95,North,10,0.0,3.1,46,0.00,,---,0.00,VWS V14.01,2013-07-17 13:40:00,
2013-07-17 06:44:00,59.5,52.3,29.98,East,101,0.0,3.6,77,0.00,,---,0.00,VWS V14.01,2013-07-17 13:44:00,
2013-07-17 06:45:00,68.4,46.8,29.95,North,10,0.0,0.0,46,0.00,,---,0.00,VWS V14.01,2013-07-17 13:45:00,
2013-07-17 06:49:00,60.4,52.1,30.01,ENE,68,0.0,0.0,74,0.00,,---,0.00,VWS V14.01,2013-07-17 13:49:00,
2013-07-17 06:50:00,69.1,47.5,29.95,ENE,64,0.0,2.2,46,0.00,,---,0.00,VWS V14.01,2013-07-17 13:50:00,
2013-07-17 06:54:00,60.3,51.2,30.01,ENE,78,3.1,3.1,72,0.00,,---,0.00,VWS V14.01,2013-07-17 13:54:00,
2013-07-17 06:55:00,68.9,47.3,29.95,SSW,206,0.0,3.1,46,0.00,,---,0.00,VWS V14.01,2013-07-17 13:55:00,
2013-07-17 07:00:00,60.8,51.0,30.01,NNE,19,2.7,2.7,70,0.00,,---,0.00,VWS V14.01,2013-07-17 14:00:00,
2013-07-17 07:05:00,70.0,47.7,29.95,SSW,205,0.0,0.0,45,0.00,,---,0.00,VWS V14.01,2013-07-17 14:05:00,
2013-07-17 07:06:00,61.5,51.3,30.01,NE,52,3.6,3.6,69,0.00,,---,0.00,VWS V14.01,2013-07-17 14:06:00,
2013-07-17 07:10:00,70.0,48.3,29.95,SSW,206,0.0,0.0,46,0.00,,---,0.00,VWS V14.01,2013-07-17 14:10:00,
2013-07-17 07:12:00,61.9,51.6,30.01,ENE,70,3.1,5.4,69,0.00,,---,0.00,VWS V14.01,2013-07-17 14:12:00,
2013-07-17 07:15:00,69.6,48.5,29.95,SSW,197,0.0,0.0,47,0.00,,---,0.00,VWS V14.01,2013-07-17 14:15:00,
2013-07-17 07:18:00,62.6,51.1,30.01,East,92,4.0,4.0,66,0.00,,---,0.00,VWS V14.01,2013-07-17 14:18:00,
2013-07-17 07:20:00,69.6,49.1,29.95,SSW,197,0.0,0.0,48,0.00,,---,0.00,VWS V14.01,2013-07-17 14:20:00,
2013-07-17 07:24:00,62.6,49.8,30.01,NE,36,3.1,3.6,63,0.00,,---,0.00,VWS V14.01,2013-07-17 14:24:00,
2013-07-17 07:25:00,70.0,48.8,29.95,SSW,193,2.2,3.1,47,0.00,,---,0.00,VWS V14.01,2013-07-17 14:25:00,
2013-07-17 07:29:00,62.8,50.4,30.01,NNE,21,0.0,4.0,64,0.00,,---,0.00,VWS V14.01,2013-07-17 14:29:00,
2013-07-17 07:30:00,70.5,49.3,29.95,SSW,193,2.7,2.7,47,0.00,,---,0.00,VWS V14.01,2013-07-17 14:30:00,
2013-07-17 07:34:00,63.1,51.6,30.01,NE,51,3.1,4.0,66,0.00,,---,0.00,VWS V14.01,2013-07-17 14:34:00,
2013-07-17 07:35:00,70.5,49.3,29.95,South,191,2.7,3.1,47,0.00,,---,0.00,VWS V14.01,2013-07-17 14:35:00,
2013-07-17 07:40:00,63.9,51.9,30.01,East,97,2.7,3.1,65,0.00,,---,0.00,VWS V14.01,2013-07-17 14:40:00,
2013-07-17 07:45:00,71.4,50.2,29.95,SSW,197,0.0,0.0,47,0.00,,---,0.00,VWS V14.01,2013-07-17 14:45:00,
2013-07-17 07:46:00,64.9,51.2,30.01,NNE,32,0.0,2.7,61,0.00,,---,0.00,VWS V14.01,2013-07-17 14:46:00,
2013-07-17 07:50:00,71.8,51.1,29.98,SSW,197,0.0,0.0,48,0.00,,---,0.00,VWS V14.01,2013-07-17 14:50:00,
2013-07-17 07:52:00,65.1,51.8,30.01,NNE,31,0.0,0.0,62,0.00,,---,0.00,VWS V14.01,2013-07-17 14:52:00,
2013-07-17 07:55:00,72.0,50.7,29.98,ESE,104,0.0,2.7,47,0.00,,---,0.00,VWS V14.01,2013-07-17 14:55:00,
2013-07-17 07:58:00,66.2,51.5,30.01,East,85,2.7,3.1,59,0.00,,---,0.00,VWS V14.01,2013-07-17 14:58:00,
2013-07-17 08:00:00,72.3,50.4,29.98,ESE,104,0.0,0.0,46,0.00,,---,0.00,VWS V14.01,2013-07-17 15:00:00,
2013-07-17 08:04:00,66.4,51.2,30.01,East,80,0.0,3.6,58,0.00,,---,0.00,VWS V14.01,2013-07-17 15:04:00,
2013-07-17 08:05:00,72.3,49.8,29.98,NE,38,0.0,0.0,45,0.00,,---,0.00,VWS V14.01,2013-07-17 15:05:00,
2013-07-17 08:09:00,66.6,51.8,30.01,SSW,206,0.0,0.0,59,0.00,,---,0.00,VWS V14.01,2013-07-17 15:09:00,
2013-07-17 08:10:00,72.7,50.1,29.98,East,93,0.0,3.1,45,0.00,,---,0.00,VWS V14.01,2013-07-17 15:10:00,
2013-07-17 08:15:00,73.0,49.9,29.98,NE,52,2.2,3.6,44,0.00,,---,0.00,VWS V14.01,2013-07-17 15:15:00,
2013-07-17 08:16:00,67.3,52.5,30.01,SSW,192,2.7,4.0,59,0.00,,---,0.00,VWS V14.01,2013-07-17 15:16:00,
2013-07-17 08:20:00,73.4,49.6,29.98,ENE,59,0.0,2.2,43,0.00,,---,0.00,VWS V14.01,2013-07-17 15:20:00,
2013-07-17 08:22:00,68.2,52.4,30.01,SSE,152,0.0,0.0,57,0.00,,---,0.00,VWS V14.01,2013-07-17 15:22:00,
2013-07-17 08:25:00,73.6,49.7,29.98,East,95,0.0,2.7,43,0.00,,---,0.00,VWS V14.01,2013-07-17 15:25:00,
2013-07-17 08:28:00,68.7,52.4,30.01,SSW,192,2.2,3.6,56,0.00,,---,0.00,VWS V14.01,2013-07-17 15:28:00,
2013-07-17 08:30:00,74.3,49.8,29.98,SE,136,0.0,2.7,42,0.00,,---,0.00,VWS V14.01,2013-07-17 15:30:00,
2013-07-17 08:34:00,68.9,52.6,30.01,South,186,0.0,4.0,56,0.00,,---,0.00,VWS V14.01,2013-07-17 15:34:00,
2013-07-17 08:35:00,75.0,51.0,29.98,South,175,2.2,3.1,43,0.00,,---,0.00,VWS V14.01,2013-07-17 15:35:00,
2013-07-17 08:40:00,69.1,52.7,30.01,South,186,0.0,0.0,56,0.00,,---,0.00,VWS V14.01,2013-07-17 15:40:00,
2013-07-17 08:45:00,75.7,51.0,29.98,South,182,2.7,2.7,42,0.00,,---,0.00,VWS V14.01,2013-07-17 15:45:00,
2013-07-17 08:47:00,69.6,52.8,30.01,SSW,194,2.2,3.6,55,0.00,,---,0.00,VWS V14.01,2013-07-17 15:47:00,
2013-07-17 08:50:00,76.3,52.2,29.98,South,175,2.7,4.0,43,0.00,,---,0.00,VWS V14.01,2013-07-17 15:50:00,
2013-07-17 08:53:00,70.0,52.1,30.01,North,0,2.2,2.7,53,0.00,,---,0.00,VWS V14.01,2013-07-17 15:53:00,
2013-07-17 08:55:00,77.0,52.2,29.98,SSW,200,2.7,3.6,42,0.00,,---,0.00,VWS V14.01,2013-07-17 15:55:00,
2013-07-17 08:59:00,70.3,52.9,30.01,SSE,167,0.0,4.0,54,0.00,,---,0.00,VWS V14.01,2013-07-17 15:59:00,
2013-07-17 09:00:00,77.7,52.8,29.98,East,81,0.0,3.6,42,0.00,,---,0.00,VWS V14.01,2013-07-17 16:00:00,
2013-07-17 09:04:00,71.1,53.1,30.01,SSW,197,4.0,5.4,53,0.00,,---,0.00,VWS V14.01,2013-07-17 16:04:00,
2013-07-17 09:05:00,77.7,52.2,29.98,East,86,0.0,0.0,41,0.00,,---,0.00,VWS V14.01,2013-07-17 16:05:00,
2013-07-17 09:09:00,71.4,52.9,30.01,SSW,203,0.0,4.0,52,0.00,,---,0.00,VWS V14.01,2013-07-17 16:09:00,
2013-07-17 09:10:00,77.9,52.3,29.98,WNW,289,0.0,3.1,41,0.00,,---,0.00,VWS V14.01,2013-07-17 16:10:00,
2013-07-17 09:15:00,71.8,52.2,30.01,East,95,0.0,3.1,50,0.00,,---,0.00,VWS V14.01,2013-07-17 16:15:00,
2013-07-17 09:20:00,79.2,53.5,29.98,South,175,0.0,3.1,41,0.00,,---,0.00,VWS V14.01,2013-07-17 16:20:00,
2013-07-17 09:21:00,72.0,52.3,30.01,South,176,3.1,3.1,50,0.00,,---,0.00,VWS V14.01,2013-07-17 16:21:00,
2013-07-17 09:25:00,79.9,54.1,29.98,SSW,207,0.0,3.6,41,0.00,,---,0.00,VWS V14.01,2013-07-17 16:25:00,
2013-07-17 09:27:00,72.7,52.4,30.01,SW,231,0.0,3.6,49,0.00,,---,0.00,VWS V14.01,2013-07-17 16:27:00,
2013-07-17 09:30:00,80.4,54.6,29.98,South,177,0.0,3.1,41,0.00,,---,0.00,VWS V14.01,2013-07-17 16:30:00,
2013-07-17 09:31:00,80.4,54.6,29.98,South,177,0.0,0.0,41,0.00,,---,0.00,VWS V14.01,2013-07-17 16:31:00,
2013-07-17 09:33:00,73.2,52.4,30.01,South,191,0.0,4.0,48,0.00,,---,0.00,VWS V14.01,2013-07-17 16:33:00,
2013-07-17 09:35:00,80.6,54.1,29.98,South,185,0.0,3.6,40,0.00,,---,0.00,VWS V14.01,2013-07-17 16:35:00,
2013-07-17 09:37:00,80.6,54.1,29.98,South,187,2.2,2.7,40,0.00,,---,0.00,VWS V14.01,2013-07-17 16:37:00,
2013-07-17 09:39:00,73.9,51.9,30.01,SSW,200,2.7,4.9,46,0.00,,---,0.00,VWS V14.01,2013-07-17 16:39:00,
2013-07-17 09:40:00,80.8,54.2,29.98,SE,134,0.0,3.6,40,0.00,,---,0.00,VWS V14.01,2013-07-17 16:40:00,
2013-07-17 09:41:00,80.8,54.2,29.98,SW,223,0.0,0.0,40,0.00,,---,0.00,VWS V14.01,2013-07-17 16:41:00,
2013-07-17 09:43:00,80.6,53.4,29.98,NW,324,2.2,2.7,39,0.00,,---,0.00,VWS V14.01,2013-07-17 16:43:00,
2013-07-17 09:44:00,74.3,52.2,30.01,SSW,212,0.0,4.0,46,0.00,,---,0.00,VWS V14.01,2013-07-17 16:44:00,
2013-07-17 09:45:00,80.6,53.4,29.98,North,357,0.0,2.7,39,0.00,,---,0.00,VWS V14.01,2013-07-17 16:45:00,
2013-07-17 09:47:00,80.8,53.5,29.98,SSW,195,0.0,0.0,39,0.00,,---,0.00,VWS V14.01,2013-07-17 16:47:00,
2013-07-17 09:49:00,81.1,53.9,29.95,South,187,3.1,3.1,39,0.00,,---,0.00,VWS V14.01,2013-07-17 16:49:00,
2013-07-17 09:50:00,81.1,53.9,29.95,SSW,192,0.0,3.1,39,0.00,,---,0.00,VWS V14.01,2013-07-17 16:50:00,
2013-07-17 09:51:00,74.5,51.8,30.01,SSE,168,3.1,5.4,45,0.00,,---,0.00,VWS V14.01,2013-07-17 16:51:00,
2013-07-17 09:53:00,81.5,54.2,29.95,SSW,195,3.6,4.9,39,0.00,,---,0.00,VWS V14.01,2013-07-17 16:53:00,
2013-07-17 09:55:00,81.7,53.6,29.95,SSE,164,4.0,4.9,38,0.00,,---,0.00,VWS V14.01,2013-07-17 16:55:00,
2013-07-17 09:57:00,74.7,51.3,30.01,NE,50,0.0,2.2,44,0.00,,---,0.00,VWS V14.01,2013-07-17 16:57:00,
2013-07-17 09:59:00,82.2,54.1,29.95,South,191,3.6,4.0,38,0.00,,---,0.00,VWS V14.01,2013-07-17 16:59:00,
2013-07-17 10:00:00,82.2,54.1,29.95,South,176,2.7,4.9,38,0.00,,---,0.00,VWS V14.01,2013-07-17 17:00:00,
2013-07-17 10:01:00,82.4,54.3,29.95,South,179,2.2,4.0,38,0.00,,---,0.00,VWS V14.01,2013-07-17 17:01:00,
2013-07-17 10:03:00,75.2,51.8,30.01,WSW,249,0.0,3.6,44,0.00,,---,0.00,VWS V14.01,2013-07-17 17:03:00,
2013-07-17 10:05:00,82.9,54.0,29.95,SW,222,0.0,4.0,37,0.00,,---,0.00,VWS V14.01,2013-07-17 17:05:00,
2013-07-17 10:07:00,83.3,53.6,29.95,South,171,0.0,4.0,36,0.00,,---,0.00,VWS V14.01,2013-07-17 17:07:00,
2013-07-17 10:09:00,75.6,52.1,30.01,SSW,199,4.0,5.8,44,0.00,,---,0.00,VWS V14.01,2013-07-17 17:09:00,
2013-07-17 10:10:00,83.5,54.5,29.95,SSW,202,3.6,4.0,37,0.00,,---,0.00,VWS V14.01,2013-07-17 17:10:00,
2013-07-17 10:11:00,83.7,53.9,29.95,SSE,159,3.6,4.0,36,0.00,,---,0.00,VWS V14.01,2013-07-17 17:11:00,
2013-07-17 10:13:00,83.8,54.1,29.95,SSE,159,2.2,4.0,36,0.00,,---,0.00,VWS V14.01,2013-07-17 17:13:00,
2013-07-17 10:14:00,76.1,52.6,30.01,SSW,208,0.0,4.0,44,0.00,,---,0.00,VWS V14.01,2013-07-17 17:14:00,
2013-07-17 10:15:00,83.8,54.1,29.95,South,186,3.6,4.0,36,0.00,,---,0.00,VWS V14.01,2013-07-17 17:15:00,
2013-07-17 10:17:00,84.0,54.2,29.95,South,174,3.6,4.9,36,0.00,,---,0.00,VWS V14.01,2013-07-17 17:17:00,
2013-07-17 10:19:00,76.3,52.8,30.01,South,187,0.0,2.7,44,0.00,,---,0.00,VWS V14.01,2013-07-17 17:19:00,
2013-07-17 10:20:00,84.2,54.4,29.95,SSW,196,4.9,4.9,36,0.00,,---,0.00,VWS V14.01,2013-07-17 17:20:00,
2013-07-17 10:21:00,84.4,53.8,29.95,WNW,287,2.2,4.9,35,0.00,,---,0.00,VWS V14.01,2013-07-17 17:21:00,
2013-07-17 10:23:00,84.6,53.9,29.95,South,179,2.7,4.9,35,0.00,,---,0.00,VWS V14.01,2013-07-17 17:23:00,
2013-07-17 10:25:00,77.2,52.3,30.01,South,187,2.7,3.6,42,0.00,,---,0.00,VWS V14.01,2013-07-17 17:25:00,
2013-07-17 10:27:00,85.1,54.4,29.95,South,185,2.7,3.1,35,0.00,,---,0.00,VWS V14.01,2013-07-17 17:27:00,
2013-07-17 10:29:00,85.3,53.8,29.95,SSE,167,3.1,4.0,34,0.00,,---,0.00,VWS V14.01,2013-07-17 17:29:00,
2013-07-17 10:30:00,85.5,53.9,29.95,South,181,4.0,4.0,34,0.00,,---,0.00,VWS V14.01,2013-07-17 17:30:00,
2013-07-17 10:31:00,77.0,52.2,30.01,SW,231,0.0,2.2,42,0.00,,---,0.00,VWS V14.01,2013-07-17 17:31:00,
2013-07-17 10:33:00,85.5,53.1,29.95,West,260,0.0,4.0,33,0.00,,---,0.00,VWS V14.01,2013-07-17 17:33:00,
2013-07-17 10:35:00,85.5,53.1,29.95,NE,55,0.0,4.0,33,0.00,,---,0.00,VWS V14.01,2013-07-17 17:35:00,
2013-07-17 10:37:00,76.8,52.0,30.01,SW,223,3.6,5.4,42,0.00,,---,0.00,VWS V14.01,2013-07-17 17:37:00,
2013-07-17 10:39:00,85.1,52.0,29.95,South,171,3.6,4.9,32,0.00,,---,0.00,VWS V14.01,2013-07-17 17:39:00,
2013-07-17 10:40:00,85.1,52.0,29.95,SSW,197,4.0,4.9,32,0.00,,---,0.00,VWS V14.01,2013-07-17 17:40:00,
2013-07-17 10:41:00,85.3,53.0,29.95,SSW,192,0.0,4.0,33,0.00,,---,0.00,VWS V14.01,2013-07-17 17:41:00,
2013-07-17 10:43:00,77.7,52.2,30.01,WNW,294,3.6,4.9,41,0.00,,---,0.00,VWS V14.01,2013-07-17 17:43:00,
2013-07-17 10:45:00,85.5,52.3,29.95,South,177,2.7,4.0,32,0.00,,---,0.00,VWS V14.01,2013-07-17 17:45:00,
2013-07-17 10:47:00,85.8,52.6,29.95,South,179,2.2,3.1,32,0.00,,---,0.00,VWS V14.01,2013-07-17 17:47:00,
2013-07-17 10:49:00,77.5,52.7,30.01,SSW,203,3.1,4.0,42,0.00,,---,0.00,VWS V14.01,2013-07-17 17:49:00,
2013-07-17 10:50:00,86.2,52.0,29.95,SSW,198,3.1,3.6,31,0.00,,---,0.00,VWS V14.01,2013-07-17 17:50:00,
2013-07-17 10:51:00,86.2,52.0,29.95,SSE,147,3.6,4.0,31,0.00,,---,0.00,VWS V14.01,2013-07-17 17:51:00,
2013-07-17 10:53:00,86.5,52.3,29.95,SSW,212,0.0,4.0,31,0.00,,---,0.00,VWS V14.01,2013-07-17 17:53:00,
2013-07-17 10:55:00,78.4,53.5,30.01,South,178,4.0,4.9,42,0.00,,---,0.00,VWS V14.01,2013-07-17 17:55:00,
2013-07-17 10:57:00,86.9,52.7,29.95,SSW,208,0.0,4.9,31,0.00,,---,0.00,VWS V14.01,2013-07-17 17:57:00,
2013-07-17 10:59:00,87.1,52.8,29.95,SSW,198,3.1,4.9,31,0.00,,---,0.00,VWS V14.01,2013-07-17 17:59:00,
2013-07-17 11:00:00,87.1,52.8,29.95,SSW,198,0.0,4.9,31,0.00,,---,0.00,VWS V14.01,2013-07-17 18:00:00,
2013-07-17 11:01:00,79.3,53.6,30.01,SSE,159,3.6,5.8,41,0.00,,---,0.00,VWS V14.01,2013-07-17 18:01:00,
2013-07-17 11:03:00,87.1,51.9,29.95,SSE,149,4.0,4.0,30,0.00,,---,0.00,VWS V14.01,2013-07-17 18:03:00,
2013-07-17 11:05:00,87.1,51.9,29.95,SSW,195,2.7,4.0,30,0.00,,---,0.00,VWS V14.01,2013-07-17 18:05:00,
2013-07-17 11:07:00,79.9,54.1,30.01,South,180,3.1,3.6,41,0.00,,---,0.00,VWS V14.01,2013-07-17 18:07:00,
2013-07-17 11:09:00,86.5,51.5,29.95,SW,220,0.0,4.0,30,0.00,,---,0.00,VWS V14.01,2013-07-17 18:09:00,
2013-07-17 11:10:00,86.5,51.5,29.95,NNW,346,0.0,4.0,30,0.00,,---,0.00,VWS V14.01,2013-07-17 18:10:00,
2013-07-17 11:11:00,86.4,51.3,29.95,North,353,0.0,3.6,30,0.00,,---,0.00,VWS V14.01,2013-07-17 18:11:00,
2013-07-17 11:13:00,80.2,54.4,30.01,SSW,197,3.1,4.0,41,0.00,,---,0.00,VWS V14.01,2013-07-17 18:13:00,
2013-07-17 11:15:00,86.2,50.2,29.95,NW,316,0.0,3.6,29,0.00,,---,0.00,VWS V14.01,2013-07-17 18:15:00,
2013-07-17 11:17:00,86.4,51.3,29.95,SW,233,0.0,4.0,30,0.00,,---,0.00,VWS V14.01,2013-07-17 18:17:00,
2013-07-17 11:19:00,80.4,54.6,30.01,SSW,201,3.6,3.6,41,0.00,,---,0.00,VWS V14.01,2013-07-17 18:19:00,
2013-07-17 11:20:00,86.5,51.5,29.95,North,353,0.0,4.0,30,0.00,,---,0.00,VWS V14.01,2013-07-17 18:20:00,
2013-07-17 11:21:00,86.5,51.5,29.95,SSE,154,0.0,0.0,30,0.00,,---,0.00,VWS V14.01,2013-07-17 18:21:00,
2013-07-17 11:23:00,86.9,51.8,29.95,SW,219,2.7,5.8,30,0.00,,---,0.00,VWS V14.01,2013-07-17 18:23:00,
2013-07-17 11:25:00,81.3,54.7,30.01,SSE,147,0.0,3.1,40,0.00,,---,0.00,VWS V14.01,2013-07-17 18:25:00,
2013-07-17 11:27:00,87.1,51.9,29.95,SSE,162,3.1,4.0,30,0.00,,---,0.00,VWS V14.01,2013-07-17 18:27:00,
2013-07-17 11:29:00,87.3,52.1,29.95,SSW,202,4.9,4.9,30,0.00,,---,0.00,VWS V14.01,2013-07-17 18:29:00,
2013-07-17 11:30:00,87.3,52.1,29.95,SSW,200,3.6,4.9,30,0.00,,---,0.00,VWS V14.01,2013-07-17 18:30:00,
2013-07-17 11:31:00,87.4,52.2,29.95,SSE,157,3.6,4.0,30,0.00,,---,0.00,VWS V14.01,2013-07-17 18:31:00,
2013-07-17 11:32:00,81.1,53.2,30.01,NW,312,2.7,4.0,38,0.00,,---,0.00,VWS V14.01,2013-07-17 18:32:00,
2013-07-17 11:33:00,87.8,52.5,29.95,SSW,197,4.0,5.4,30,0.00,,---,0.00,VWS V14.01,2013-07-17 18:33:00,
2013-07-17 11:35:00,88.0,51.8,29.95,South,186,3.1,5.4,29,0.00,,---,0.00,VWS V14.01,2013-07-17 18:35:00,
2013-07-17 11:38:00,80.6,53.4,30.01,ENE,71,0.0,4.0,39,0.00,,---,0.00,VWS V14.01,2013-07-17 18:38:00,
2013-07-17 11:39:00,88.0,51.8,29.95,North,0,0.0,5.4,29,0.00,,---,0.00,VWS V14.01,2013-07-17 18:39:00,
2013-07-17 11:40:00,88.0,51.8,29.95,North,0,0.0,5.4,29,0.00,,---,0.00,VWS V14.01,2013-07-17 18:40:00,
2013-07-17 11:41:00,88.0,51.8,29.95,South,176,3.6,3.6,29,0.00,,---,0.00,VWS V14.01,2013-07-17 18:41:00,
2013-07-17 11:43:00,88.2,51.9,29.95,SSW,208,0.0,5.4,29,0.00,,---,0.00,VWS V14.01,2013-07-17 18:43:00,
2013-07-17 11:44:00,80.4,53.9,30.01,SSW,212,4.0,4.9,40,0.00,,---,0.00,VWS V14.01,2013-07-17 18:44:00,
2013-07-17 11:45:00,88.2,51.9,29.95,SSW,208,0.0,5.4,29,0.00,,---,0.00,VWS V14.01,2013-07-17 18:45:00,
2013-07-17 11:47:00,88.5,52.2,29.95,SSW,198,3.1,4.0,29,0.00,,---,0.00,VWS V14.01,2013-07-17 18:47:00,
2013-07-17 11:49:00,80.8,53.5,30.01,SSW,205,3.6,4.9,39,0.00,,---,0.00,VWS V14.01,2013-07-17 18:49:00,
2013-07-17 11:50:00,88.7,52.4,29.95,NW,326,2.7,4.0,29,0.00,,---,0.00,VWS V14.01,2013-07-17 18:50:00,
2013-07-17 11:53:00,89.2,51.9,29.95,ENE,72,0.0,4.9,28,0.00,,---,0.00,VWS V14.01,2013-07-17 18:53:00,
2013-07-17 11:54:00,81.9,54.5,30.01,WNW,290,0.0,5.4,39,0.00,,---,0.00,VWS V14.01,2013-07-17 18:54:00,
2013-07-17 11:55:00,89.4,52.1,29.95,North,353,5.4,5.4,28,0.00,,---,0.00,VWS V14.01,2013-07-17 18:55:00,
2013-07-17 11:57:00,89.4,52.1,29.95,NE,34,0.0,5.4,28,0.00,,---,0.00,VWS V14.01,2013-07-17 18:57:00,
2013-07-17 11:59:00,81.9,52.3,30.01,West,279,0.0,4.0,36,0.00,,---,0.00,VWS V14.01,2013-07-17 18:59:00,
2013-07-17 12:00:00,89.6,52.2,29.95,SE,130,0.0,5.4,28,0.00,,---,0.00,VWS V14.01,2013-07-17 19:00:00,
2013-07-17 12:01:00,89.8,52.4,29.95,NNE,12,2.7,2.7,28,0.00,,---,0.00,VWS V14.01,2013-07-17 19:01:00,
2013-07-17 12:03:00,90.0,52.5,29.95,ESE,120,4.0,4.9,28,0.00,,---,0.00,VWS V14.01,2013-07-17 19:03:00,
2013-07-17 12:05:00,82.2,53.4,30.01,SSE,160,0.0,4.0,37,0.00,,---,0.00,VWS V14.01,2013-07-17 19:05:00,
2013-07-17 12:10:00,82.8,53.1,30.01,SW,216,0.0,3.1,36,0.00,,---,0.00,VWS V14.01,2013-07-17 19:10:00,
2013-07-17 12:15:00,91.0,52.5,29.95,North,9,5.8,5.8,27,0.00,,---,0.00,VWS V14.01,2013-07-17 19:15:00,
2013-07-17 12:16:00,83.1,52.7,30.01,NW,322,3.1,3.6,35,0.00,,---,0.00,VWS V14.01,2013-07-17 19:16:00,
2013-07-17 12:20:00,91.0,53.4,29.95,ESE,105,4.0,5.8,28,0.00,,---,0.00,VWS V14.01,2013-07-17 19:20:00,
2013-07-17 12:21:00,90.9,52.3,29.95,South,177,3.6,4.0,27,0.00,,---,0.00,VWS V14.01,2013-07-17 19:21:00,
2013-07-17 12:22:00,82.2,51.9,30.01,SSW,199,3.6,3.6,35,0.00,,---,0.00,VWS V14.01,2013-07-17 19:22:00,
2013-07-17 12:25:00,91.0,52.5,29.95,West,279,3.1,5.4,27,0.00,,---,0.00,VWS V14.01,2013-07-17 19:25:00,
2013-07-17 12:28:00,83.1,52.7,30.01,SSW,207,0.0,3.6,35,0.00,,---,0.00,VWS V14.01,2013-07-17 19:28:00,
2013-07-17 12:30:00,91.4,52.8,29.95,North,353,3.6,4.5,27,0.00,,---,0.00,VWS V14.01,2013-07-17 19:30:00,
2013-07-17 12:34:00,83.7,52.3,30.01,NE,49,0.0,4.0,34,0.00,,---,0.00,VWS V14.01,2013-07-17 19:34:00,
2013-07-17 12:35:00,91.2,53.6,29.95,SSE,162,2.7,5.4,28,0.00,,---,0.00,VWS V14.01,2013-07-17 19:35:00,
2013-07-17 12:40:00,83.7,51.5,30.01,SE,138,0.0,4.0,33,0.00,,---,0.00,VWS V14.01,2013-07-17 19:40:00,
2013-07-17 12:45:00,83.8,51.7,30.01,South,179,2.2,5.8,33,0.00,,---,0.00,VWS V14.01,2013-07-17 19:45:00,
2013-07-17 12:50:00,84.4,52.2,30.01,South,176,3.1,3.1,33,0.00,,---,0.00,VWS V14.01,2013-07-17 19:50:00,
2013-07-17 12:55:00,92.1,47.8,29.95,NE,45,0.0,5.4,22,0.00,,---,0.00,VWS V14.01,2013-07-17 19:55:00,
2013-07-17 12:56:00,85.1,52.8,30.01,East,97,0.0,3.1,33,0.00,,---,0.00,VWS V14.01,2013-07-17 19:56:00,
2013-07-17 13:00:00,91.2,44.6,29.95,NW,311,2.2,6.7,20,0.00,,---,0.00,VWS V14.01,2013-07-17 20:00:00,
2013-07-17 13:02:00,84.7,51.6,30.01,NE,51,3.6,5.8,32,0.00,,---,0.00,VWS V14.01,2013-07-17 20:02:00,
2013-07-17 13:05:00,91.2,47.1,29.92,West,278,2.7,3.6,22,0.00,,---,0.00,VWS V14.01,2013-07-17 20:05:00,
2013-07-17 13:08:00,84.4,51.3,30.01,ENE,59,2.7,4.9,32,0.00,,---,0.00,VWS V14.01,2013-07-17 20:08:00,
2013-07-17 13:10:00,91.9,47.7,29.92,East,101,3.1,3.6,22,0.00,,---,0.00,VWS V14.01,2013-07-17 20:10:00,
2013-07-17 13:14:00,84.9,50.9,30.01,North,4,0.0,5.8,31,0.00,,---,0.00,VWS V14.01,2013-07-17 20:14:00,
2013-07-17 13:15:00,92.5,48.2,29.92,North,353,7.6,7.6,22,0.00,,---,0.00,VWS V14.01,2013-07-17 20:15:00,
2013-07-17 13:20:00,85.3,51.2,29.98,SSW,192,3.6,4.0,31,0.00,,---,0.00,VWS V14.01,2013-07-17 20:20:00,
2013-07-17 13:25:00,86.0,51.9,29.98,NE,49,3.1,3.6,31,0.00,,---,0.00,VWS V14.01,2013-07-17 20:25:00,
2013-07-17 13:30:00,86.4,52.2,29.98,South,173,2.7,4.0,31,0.00,,---,0.00,VWS V14.01,2013-07-17 20:30:00,
2013-07-17 13:35:00,92.5,48.2,29.92,SW,217,2.7,4.9,22,0.00,,---,0.00,VWS V14.01,2013-07-17 20:35:00,
2013-07-17 13:36:00,86.7,52.5,29.98,SE,145,2.7,3.6,31,0.00,,---,0.00,VWS V14.01,2013-07-17 20:36:00,
2013-07-17 13:40:00,92.3,50.3,29.92,South,170,5.4,5.4,24,0.00,,---,0.00,VWS V14.01,2013-07-17 20:40:00,
2013-07-17 13:42:00,87.3,53.0,29.98,SSW,194,3.1,4.9,31,0.00,,---,0.00,VWS V14.01,2013-07-17 20:42:00,
2013-07-17 13:45:00,93.2,51.1,29.92,ESE,105,3.6,5.4,24,0.00,,---,0.00,VWS V14.01,2013-07-17 20:45:00,
2013-07-17 13:48:00,87.6,52.4,29.98,SW,224,2.7,5.8,30,0.00,,---,0.00,VWS V14.01,2013-07-17 20:48:00,
2013-07-17 13:50:00,93.7,48.0,29.92,SSW,200,4.0,5.4,21,0.00,,---,0.00,VWS V14.01,2013-07-17 20:50:00,
2013-07-17 13:54:00,87.6,52.4,29.98,South,189,3.1,5.8,30,0.00,,---,0.00,VWS V14.01,2013-07-17 20:54:00,
2013-07-17 13:55:00,94.3,48.4,29.92,WSW,246,4.9,6.3,21,0.00,,---,0.00,VWS V14.01,2013-07-17 20:55:00,
2013-07-17 13:59:00,88.0,51.8,29.98,SSE,156,3.1,5.8,29,0.00,,---,0.00,VWS V14.01,2013-07-17 20:59:00,
2013-07-17 14:00:00,94.3,48.4,29.92,South,190,4.0,5.4,21,0.00,,---,0.00,VWS V14.01,2013-07-17 21:00:00,
2013-07-17 14:04:00,88.3,52.1,29.98,South,179,2.7,4.9,29,0.00,,---,0.00,VWS V14.01,2013-07-17 21:04:00,
2013-07-17 14:05:00,94.8,48.8,29.92,SE,135,3.6,4.9,21,0.00,,---,0.00,VWS V14.01,2013-07-17 21:05:00,
2013-07-17 14:10:00,88.9,52.5,29.98,SE,130,2.7,4.0,29,0.00,,---,0.00,VWS V14.01,2013-07-17 21:10:00,
2013-07-17 14:15:00,95.7,49.6,29.92,SSW,205,5.4,5.8,21,0.00,,---,0.00,VWS V14.01,2013-07-17 21:15:00,
2013-07-17 14:16:00,89.2,52.9,29.98,SSW,205,5.4,5.4,29,0.00,,---,0.00,VWS V14.01,2013-07-17 21:16:00,
2013-07-17 14:20:00,96.3,50.0,29.92,West,271,5.8,5.8,21,0.00,,---,0.00,VWS V14.01,2013-07-17 21:20:00,
2013-07-17 14:22:00,89.2,51.9,29.98,WSW,247,2.7,5.4,28,0.00,,---,0.00,VWS V14.01,2013-07-17 21:22:00,
2013-07-17 14:25:00,95.4,49.3,29.92,SSE,147,3.6,5.8,21,0.00,,---,0.00,VWS V14.01,2013-07-17 21:25:00,
2013-07-17 14:28:00,89.6,52.2,29.98,SSE,154,3.1,4.9,28,0.00,,---,0.00,VWS V14.01,2013-07-17 21:28:00,
2013-07-17 14:30:00,95.0,46.3,29.92,North,353,2.7,5.8,19,0.00,,---,0.00,VWS V14.01,2013-07-17 21:30:00,
2013-07-17 14:34:00,89.8,52.4,29.98,SSW,204,5.8,6.3,28,0.00,,---,0.00,VWS V14.01,2013-07-17 21:34:00,
2013-07-17 14:35:00,95.2,46.5,29.92,SE,146,2.7,3.6,19,0.00,,---,0.00,VWS V14.01,2013-07-17 21:35:00,
2013-07-17 14:40:00,90.0,52.5,29.98,South,171,3.1,5.8,28,0.00,,---,0.00,VWS V14.01,2013-07-17 21:40:00,
2013-07-17 14:45:00,95.4,46.6,29.92,WNW,285,3.1,6.3,19,0.00,,---,0.00,VWS V14.01,2013-07-17 21:45:00,
2013-07-17 14:46:00,90.1,52.7,29.98,SSW,200,4.0,4.0,28,0.00,,---,0.00,VWS V14.01,2013-07-17 21:46:00,
2013-07-17 14:50:00,95.2,46.5,29.89,WNW,286,2.7,6.3,19,0.00,,---,0.00,VWS V14.01,2013-07-17 21:50:00,
2013-07-17 14:52:00,90.5,53.0,29.98,West,259,3.1,5.8,28,0.00,,---,0.00,VWS V14.01,2013-07-17 21:52:00,
2013-07-17 14:55:00,95.2,46.5,29.89,West,271,0.0,4.9,19,0.00,,---,0.00,VWS V14.01,2013-07-17 21:55:00,
2013-07-17 14:58:00,90.1,51.7,29.98,SSE,148,4.0,4.0,27,0.00,,---,0.00,VWS V14.01,2013-07-17 21:58:00,
2013-07-17 15:00:00,95.9,47.0,29.89,SSW,193,2.2,2.7,19,0.00,,---,0.00,VWS V14.01,2013-07-17 22:00:00,
2013-07-17 15:04:00,90.3,51.8,29.98,West,281,3.1,5.4,27,0.00,,---,0.00,VWS V14.01,2013-07-17 22:04:00,
2013-07-17 15:05:00,96.3,47.3,29.89,SE,133,0.0,5.4,19,0.00,,---,0.00,VWS V14.01,2013-07-17 22:05:00,
2013-07-17 15:09:00,90.3,51.8,29.98,South,181,0.0,5.4,27,0.00,,---,0.00,VWS V14.01,2013-07-17 22:09:00,
2013-07-17 15:10:00,97.0,46.5,29.89,SW,214,2.2,4.9,18,0.00,,---,0.00,VWS V14.01,2013-07-17 22:10:00,
2013-07-17 15:14:00,90.7,52.1,29.98,WNW,296,2.7,3.1,27,0.00,,---,0.00,VWS V14.01,2013-07-17 22:14:00,
2013-07-17 15:15:00,97.2,46.6,29.89,WNW,284,0.0,4.0,18,0.00,,---,0.00,VWS V14.01,2013-07-17 22:15:00,
2013-07-17 15:20:00,90.9,52.3,29.98,South,181,3.1,5.8,27,0.00,,---,0.00,VWS V14.01,2013-07-17 22:20:00,
2013-07-17 15:25:00,96.3,47.3,29.89,South,189,2.7,4.9,19,0.00,,---,0.00,VWS V14.01,2013-07-17 22:25:00,
2013-07-17 15:26:00,90.3,49.8,29.98,WNW,297,4.9,4.9,25,0.00,,---,0.00,VWS V14.01,2013-07-17 22:26:00,
2013-07-17 15:30:00,95.9,47.0,29.89,SSW,197,2.7,4.0,19,0.00,,---,0.00,VWS V14.01,2013-07-17 22:30:00,
2013-07-17 15:32:00,90.1,46.2,29.98,South,174,4.0,5.4,22,0.00,,---,0.00,VWS V14.01,2013-07-17 22:32:00,
2013-07-17 15:35:00,96.1,42.7,29.89,NNE,15,3.1,5.4,16,0.00,,---,0.00,VWS V14.01,2013-07-17 22:35:00,
2013-07-17 15:38:00,90.9,50.2,29.98,SSE,154,5.4,5.8,25,0.00,,---,0.00,VWS V14.01,2013-07-17 22:38:00,
2013-07-17 15:40:00,95.9,42.5,29.89,South,185,0.0,3.6,16,0.00,,---,0.00,VWS V14.01,2013-07-17 22:40:00,
2013-07-17 15:44:00,91.0,50.4,29.98,SSE,168,3.1,4.9,25,0.00,,---,0.00,VWS V14.01,2013-07-17 22:44:00,
2013-07-17 15:45:00,95.9,42.5,29.89,NNW,331,0.0,4.5,16,0.00,,---,0.00,VWS V14.01,2013-07-17 22:45:00,
2013-07-17 15:50:00,91.2,50.5,29.98,ESE,120,2.7,6.3,25,0.00,,---,0.00,VWS V14.01,2013-07-17 22:50:00,
2013-07-17 15:55:00,96.3,42.8,29.89,SW,217,3.6,3.6,16,0.00,,---,0.00,VWS V14.01,2013-07-17 22:55:00,
2013-07-17 15:56:00,90.7,46.7,29.98,North,0,4.0,5.8,22,0.00,,---,0.00,VWS V14.01,2013-07-17 22:56:00,
2013-07-17 16:00:00,96.4,43.0,29.89,NNE,27,3.6,5.4,16,0.00,,---,0.00,VWS V14.01,2013-07-17 23:00:00,
2013-07-17 16:02:00,90.1,46.2,29.95,SW,229,0.0,4.0,22,0.00,,---,0.00,VWS V14.01,2013-07-17 23:02:00,
2013-07-17 16:05:00,96.4,43.0,29.89,WSW,240,2.7,3.6,16,0.00,,---,0.00,VWS V14.01,2013-07-17 23:05:00,
2013-07-17 16:08:00,90.3,46.3,29.95,SSW,212,0.0,3.1,22,0.00,,---,0.00,VWS V14.01,2013-07-17 23:08:00,
2013-07-17 16:10:00,96.6,43.1,29.89,North,357,3.1,4.0,16,0.00,,---,0.00,VWS V14.01,2013-07-17 23:10:00,
2013-07-17 16:15:00,90.9,46.8,29.95,South,180,0.0,3.1,22,0.00,,---,0.00,VWS V14.01,2013-07-17 23:15:00,
2013-07-17 16:20:00,90.7,46.7,29.95,East,98,0.0,4.9,22,0.00,,---,0.00,VWS V14.01,2013-07-17 23:20:00,
2013-07-17 16:25:00,90.7,46.7,29.95,SSE,156,2.2,4.0,22,0.00,,---,0.00,VWS V14.01,2013-07-17 23:25:00,
2013-07-17 16:30:00,94.8,41.7,29.89,North,10,3.6,5.4,16,0.00,,---,0.00,VWS V14.01,2013-07-17 23:30:00,
2013-07-17 16:31:00,90.7,46.7,29.95,SSW,196,0.0,0.0,22,0.00,,---,0.00,VWS V14.01,2013-07-17 23:31:00,
2013-07-17 16:35:00,95.0,41.8,29.86,NNE,16,3.1,5.4,16,0.00,,---,0.00,VWS V14.01,2013-07-17 23:35:00,
2013-07-17 16:37:00,90.9,46.8,29.95,ENE,73,0.0,4.0,22,0.00,,---,0.00,VWS V14.01,2013-07-17 23:37:00,
2013-07-17 16:40:00,95.4,42.1,29.86,South,191,3.6,5.4,16,0.00,,---,0.00,VWS V14.01,2013-07-17 23:40:00,
2013-07-17 16:43:00,90.7,46.7,29.95,SSW,210,0.0,4.0,22,0.00,,---,0.00,VWS V14.01,2013-07-17 23:43:00,
2013-07-17 16:45:00,95.5,42.2,29.86,NE,51,0.0,4.9,16,0.00,,---,0.00,VWS V14.01,2013-07-17 23:45:00,
2013-07-17 16:49:00,91.0,47.0,29.95,SSW,199,3.6,4.0,22,0.00,,---,0.00,VWS V14.01,2013-07-17 23:49:00,
2013-07-17 16:50:00,95.5,42.2,29.86,SSW,192,2.7,4.0,16,0.00,,---,0.00,VWS V14.01,2013-07-17 23:50:00,
2013-07-17 16:55:00,90.7,44.1,29.95,WSW,255,0.0,4.0,20,0.00,,---,0.00,VWS V14.01,2013-07-17 23:55:00,
2013-07-17 17:00:00,90.5,44.0,29.95,South,183,2.7,5.4,20,0.00,,---,0.00,VWS V14.01,2013-07-18 00:00:00,
2013-07-17 17:05:00,90.3,43.8,29.95,South,184,2.7,2.7,20,0.00,,---,0.00,VWS V14.01,2013-07-18 00:05:00,
2013-07-17 17:10:00,90.3,43.8,29.95,SSW,208,0.0,3.1,20,0.00,,---,0.00,VWS V14.01,2013-07-18 00:10:00,
2013-07-17 17:15:00,90.1,43.7,29.95,NNW,341,2.7,2.7,20,0.00,,---,0.00,VWS V14.01,2013-07-18 00:15:00,
2013-07-17 17:20:00,95.0,41.8,29.86,West,271,3.1,3.1,16,0.00,,---,0.00,VWS V14.01,2013-07-18 00:20:00,
2013-07-17 17:21:00,90.1,43.7,29.95,South,186,3.1,3.6,20,0.00,,---,0.00,VWS V14.01,2013-07-18 00:21:00,
2013-07-17 17:25:00,94.8,41.7,29.86,South,190,2.7,4.0,16,0.00,,---,0.00,VWS V14.01,2013-07-18 00:25:00,
2013-07-17 17:27:00,89.8,43.4,29.95,NW,326,0.0,5.8,20,0.00,,---,0.00,VWS V14.01,2013-07-18 00:27:00,
2013-07-17 17:30:00,94.6,41.5,29.86,SE,144,3.1,3.6,16,0.00,,---,0.00,VWS V14.01,2013-07-18 00:30:00,
2013-07-17 17:33:00,89.6,43.3,29.95,SSE,167,0.0,0.0,20,0.00,,---,0.00,VWS V14.01,2013-07-18 00:33:00,
2013-07-17 17:35:00,94.5,41.4,29.86,NNE,17,2.7,3.6,16,0.00,,---,0.00,VWS V14.01,2013-07-18 00:35:00,
2013-07-17 17:39:00,89.4,43.1,29.95,NW,323,0.0,3.1,20,0.00,,---,0.00,VWS V14.01,2013-07-18 00:39:00,
2013-07-17 17:40:00,94.5,41.4,29.86,SSE,155,2.2,3.6,16,0.00,,---,0.00,VWS V14.01,2013-07-18 00:40:00,
2013-07-17 17:45:00,89.2,46.6,29.95,SSW,197,0.0,3.6,23,0.00,,---,0.00,VWS V14.01,2013-07-18 00:45:00,
2013-07-17 17:50:00,94.1,41.1,29.86,WNW,285,3.1,3.6,16,0.00,,---,0.00,VWS V14.01,2013-07-18 00:50:00,
2013-07-17 17:51:00,89.1,42.8,29.95,NW,322,0.0,2.2,20,0.00,,---,0.00,VWS V14.01,2013-07-18 00:51:00,
2013-07-17 17:55:00,94.1,41.1,29.86,South,179,0.0,3.1,16,0.00,,---,0.00,VWS V14.01,2013-07-18 00:55:00,
2013-07-17 17:57:00,89.1,42.8,29.95,SW,218,0.0,4.0,20,0.00,,---,0.00,VWS V14.01,2013-07-18 00:57:00,
2013-07-17 18:00:00,93.9,41.0,29.86,South,171,0.0,2.7,16,0.00,,---,0.00,VWS V14.01,2013-07-18 01:00:00,
2013-07-17 18:03:00,88.9,42.7,29.92,West,265,0.0,0.0,20,0.00,,---,0.00,VWS V14.01,2013-07-18 01:03:00,
2013-07-17 18:05:00,93.6,40.7,29.86,South,179,3.6,4.0,16,0.00,,---,0.00,VWS V14.01,2013-07-18 01:05:00,
2013-07-17 18:09:00,88.9,42.7,29.92,SSW,192,0.0,0.0,20,0.00,,---,0.00,VWS V14.01,2013-07-18 01:09:00,
2013-07-17 18:10:00,93.4,40.5,29.86,South,187,2.2,5.8,16,0.00,,---,0.00,VWS V14.01,2013-07-18 01:10:00,
2013-07-17 18:15:00,88.7,42.5,29.92,SSW,192,0.0,0.0,20,0.00,,---,0.00,VWS V14.01,2013-07-18 01:15:00,
2013-07-17 18:20:00,88.7,42.5,29.95,SSE,166,0.0,0.0,20,0.00,,---,0.00,VWS V14.01,2013-07-18 01:20:00,
2013-07-17 18:25:00,88.7,42.5,29.95,SSE,166,0.0,0.0,20,0.00,,---,0.00,VWS V14.01,2013-07-18 01:25:00,
2013-07-17 18:30:00,88.5,42.4,29.95,SSW,207,0.0,3.6,20,0.00,,---,0.00,VWS V14.01,2013-07-18 01:30:00,
2013-07-17 18:35:00,92.8,41.7,29.86,South,183,2.2,3.6,17,0.00,,---,0.00,VWS V14.01,2013-07-18 01:35:00,
2013-07-17 18:40:00,92.5,41.4,29.86,South,191,0.0,2.7,17,0.00,,---,0.00,VWS V14.01,2013-07-18 01:40:00,
2013-07-17 18:45:00,92.1,41.1,29.86,West,276,0.0,0.0,17,0.00,,---,0.00,VWS V14.01,2013-07-18 01:45:00,
2013-07-17 18:50:00,91.8,40.8,29.83,WNW,283,0.0,0.0,17,0.00,,---,0.00,VWS V14.01,2013-07-18 01:50:00,
2013-07-17 18:55:00,91.4,40.5,29.83,West,281,0.0,0.0,17,0.00,,---,0.00,VWS V14.01,2013-07-18 01:55:00,
2013-07-17 19:00:00,91.0,40.2,29.83,West,281,0.0,0.0,17,0.00,,---,0.00,VWS V14.01,2013-07-18 02:00:00,
2013-07-17 19:05:00,90.5,39.8,29.83,West,281,0.0,0.0,17,0.00,,---,0.00,VWS V14.01,2013-07-18 02:05:00,
2013-07-17 19:10:00,89.8,39.2,29.83,West,281,0.0,0.0,17,0.00,,---,0.00,VWS V14.01,2013-07-18 02:10:00,
2013-07-17 19:15:00,89.6,39.1,29.83,West,281,0.0,0.0,17,0.00,,---,0.00,VWS V14.01,2013-07-18 02:15:00,
2013-07-17 19:20:00,89.2,40.2,29.83,West,281,0.0,0.0,18,0.00,,---,0.00,VWS V14.01,2013-07-18 02:20:00,
2013-07-17 19:25:00,88.9,39.9,29.83,West,281,0.0,0.0,18,0.00,,---,0.00,VWS V14.01,2013-07-18 02:25:00,
2013-07-17 19:30:00,88.5,39.7,29.83,West,281,0.0,0.0,18,0.00,,---,0.00,VWS V14.01,2013-07-18 02:30:00,
2013-07-17 19:35:00,88.2,39.4,29.83,West,281,0.0,0.0,18,0.00,,---,0.00,VWS V14.01,2013-07-18 02:35:00,
2013-07-17 19:40:00,88.0,39.2,29.83,West,281,0.0,0.0,18,0.00,,---,0.00,VWS V14.01,2013-07-18 02:40:00,
2013-07-17 19:45:00,87.8,39.1,29.83,West,281,0.0,0.0,18,0.00,,---,0.00,VWS V14.01,2013-07-18 02:45:00,
2013-07-17 19:50:00,87.4,38.8,29.83,West,281,0.0,0.0,18,0.00,,---,0.00,VWS V14.01,2013-07-18 02:50:00,
2013-07-17 19:55:00,87.3,38.6,29.83,West,281,0.0,0.0,18,0.00,,---,0.00,VWS V14.01,2013-07-18 02:55:00,
2013-07-17 19:57:00,82.9,39.0,29.95,SSW,202,0.0,0.0,21,0.00,,---,0.00,VWS V14.01,2013-07-18 02:57:00,
2013-07-17 20:00:00,87.3,38.6,29.83,West,281,0.0,0.0,18,0.00,,---,0.00,VWS V14.01,2013-07-18 03:00:00,
2013-07-17 20:04:00,82.6,38.7,29.95,SSW,202,0.0,0.0,21,0.00,,---,0.00,VWS V14.01,2013-07-18 03:04:00,
2013-07-17 20:05:00,87.3,38.6,29.83,West,281,0.0,0.0,18,0.00,,---,0.00,VWS V14.01,2013-07-18 03:05:00,
2013-07-17 20:10:00,87.3,38.6,29.83,West,281,0.0,0.0,18,0.00,,---,0.00,VWS V14.01,2013-07-18 03:10:00,
2013-07-17 20:15:00,86.9,38.3,29.83,West,281,0.0,0.0,18,0.00,,---,0.00,VWS V14.01,2013-07-18 03:15:00,
2013-07-17 20:20:00,86.5,38.0,29.86,West,281,0.0,0.0,18,0.00,,---,0.00,VWS V14.01,2013-07-18 03:20:00,
2013-07-17 20:25:00,81.3,38.9,29.95,SSW,203,0.0,0.0,22,0.00,,---,0.00,VWS V14.01,2013-07-18 03:25:00,
2013-07-17 20:30:00,86.2,34.8,29.86,West,281,0.0,0.0,16,0.00,,---,0.00,VWS V14.01,2013-07-18 03:30:00,
2013-07-17 20:35:00,85.6,34.3,29.86,West,281,0.0,0.0,16,0.00,,---,0.00,VWS V14.01,2013-07-18 03:35:00,
2013-07-17 20:40:00,85.1,33.9,29.86,West,281,0.0,0.0,16,0.00,,---,0.00,VWS V14.01,2013-07-18 03:40:00,
2013-07-17 20:45:00,80.2,38.0,29.95,SSW,202,0.0,0.0,22,0.00,,---,0.00,VWS V14.01,2013-07-18 03:45:00,
2013-07-17 20:50:00,84.0,37.4,29.86,West,281,0.0,0.0,19,0.00,,---,0.00,VWS V14.01,2013-07-18 03:50:00,
2013-07-17 20:51:00,79.9,37.7,29.95,SSW,202,0.0,0.0,22,0.00,,---,0.00,VWS V14.01,2013-07-18 03:51:00,
2013-07-17 20:55:00,83.1,36.6,29.86,SSW,204,0.0,4.0,19,0.00,,---,0.00,VWS V14.01,2013-07-18 03:55:00,
2013-07-17 20:57:00,79.5,37.4,29.95,SSW,202,0.0,0.0,22,0.00,,---,0.00,VWS V14.01,2013-07-18 03:57:00,
2013-07-17 21:00:00,82.8,36.3,29.86,SSW,204,0.0,0.0,19,0.00,,---,0.00,VWS V14.01,2013-07-18 04:00:00,
2013-07-17 21:01:00,82.6,36.2,29.86,SSW,204,0.0,0.0,19,0.00,,---,0.00,VWS V14.01,2013-07-18 04:01:00,
2013-07-17 21:03:00,82.2,35.9,29.86,SSW,204,0.0,0.0,19,0.00,,---,0.00,VWS V14.01,2013-07-18 04:03:00,
2013-07-17 21:05:00,82.0,35.8,29.86,SSW,204,0.0,0.0,19,0.00,,---,0.00,VWS V14.01,2013-07-18 04:05:00,
2013-07-17 21:08:00,81.5,35.3,29.86,SSW,204,0.0,0.0,19,0.00,,---,0.00,VWS V14.01,2013-07-18 04:08:00,
2013-07-17 21:09:00,81.3,35.2,29.86,SSW,204,0.0,0.0,19,0.00,,---,0.00,VWS V14.01,2013-07-18 04:09:00,
2013-07-17 21:10:00,81.3,35.2,29.86,SSW,204,0.0,0.0,19,0.00,,---,0.00,VWS V14.01,2013-07-18 04:10:00,
2013-07-17 21:12:00,81.0,34.9,29.86,SSW,204,0.0,0.0,19,0.00,,---,0.00,VWS V14.01,2013-07-18 04:12:00,
2013-07-17 21:14:00,80.8,34.7,29.86,SSW,204,0.0,0.0,19,0.00,,---,0.00,VWS V14.01,2013-07-18 04:14:00,
2013-07-17 21:15:00,80.8,34.7,29.86,SSW,204,0.0,0.0,19,0.00,,---,0.00,VWS V14.01,2013-07-18 04:15:00,
2013-07-17 21:16:00,80.6,34.6,29.86,SSW,204,0.0,0.0,19,0.00,,---,0.00,VWS V14.01,2013-07-18 04:16:00,
2013-07-17 21:18:00,80.6,34.6,29.86,SSW,204,0.0,0.0,19,0.00,,---,0.00,VWS V14.01,2013-07-18 04:18:00,
2013-07-17 21:19:00,80.4,35.7,29.86,SSW,204,0.0,0.0,20,0.00,,---,0.00,VWS V14.01,2013-07-18 04:19:00,
2013-07-17 21:20:00,80.4,35.7,29.86,SSW,204,0.0,0.0,20,0.00,,---,0.00,VWS V14.01,2013-07-18 04:20:00,
2013-07-17 21:22:00,80.4,35.7,29.86,SSW,204,0.0,0.0,20,0.00,,---,0.00,VWS V14.01,2013-07-18 04:22:00,
2013-07-17 21:24:00,80.2,35.6,29.86,SSW,204,0.0,0.0,20,0.00,,---,0.00,VWS V14.01,2013-07-18 04:24:00,
2013-07-17 21:25:00,80.2,35.6,29.86,SSW,204,0.0,0.0,20,0.00,,---,0.00,VWS V14.01,2013-07-18 04:25:00,
2013-07-17 21:26:00,80.2,35.6,29.86,SSW,204,0.0,0.0,20,0.00,,---,0.00,VWS V14.01,2013-07-18 04:26:00,
2013-07-17 21:28:00,80.1,35.4,29.86,SE,146,0.0,0.0,20,0.00,,---,0.00,VWS V14.01,2013-07-18 04:28:00,
2013-07-17 21:29:00,79.9,35.3,29.86,SE,146,0.0,0.0,20,0.00,,---,0.00,VWS V14.01,2013-07-18 04:29:00,
2013-07-17 21:30:00,79.9,35.3,29.86,SE,146,0.0,0.0,20,0.00,,---,0.00,VWS V14.01,2013-07-18 04:30:00,
2013-07-17 21:31:00,79.5,37.4,29.86,SE,146,0.0,0.0,22,0.00,,---,0.00,VWS V14.01,2013-07-18 04:31:00,
2013-07-17 21:33:00,79.5,37.4,29.86,ENE,57,0.0,0.0,22,0.00,,---,0.00,VWS V14.01,2013-07-18 04:33:00,
2013-07-17 21:35:00,79.3,40.5,29.86,ENE,57,0.0,0.0,25,0.00,,---,0.00,VWS V14.01,2013-07-18 04:35:00,
2013-07-17 21:37:00,79.2,40.3,29.86,ENE,57,0.0,0.0,25,0.00,,---,0.00,VWS V14.01,2013-07-18 04:37:00,
2013-07-17 21:39:00,78.8,40.0,29.86,ENE,57,0.0,0.0,25,0.00,,---,0.00,VWS V14.01,2013-07-18 04:39:00,
2013-07-17 21:40:00,78.8,40.0,29.86,ENE,57,0.0,0.0,25,0.00,,---,0.00,VWS V14.01,2013-07-18 04:40:00,
2013-07-17 21:41:00,78.6,42.8,29.86,ENE,57,0.0,0.0,28,0.00,,---,0.00,VWS V14.01,2013-07-18 04:41:00,
2013-07-17 21:43:00,78.4,42.7,29.86,ENE,57,0.0,0.0,28,0.00,,---,0.00,VWS V14.01,2013-07-18 04:43:00,
2013-07-17 21:45:00,78.4,42.7,29.86,ENE,57,0.0,0.0,28,0.00,,---,0.00,VWS V14.01,2013-07-18 04:45:00,
2013-07-17 21:47:00,78.3,42.5,29.86,ENE,57,0.0,0.0,28,0.00,,---,0.00,VWS V14.01,2013-07-18 04:47:00,
2013-07-17 21:49:00,78.1,42.4,29.86,ENE,57,0.0,0.0,28,0.00,,---,0.00,VWS V14.01,2013-07-18 04:49:00,
2013-07-17 21:50:00,78.1,42.4,29.86,ENE,57,0.0,0.0,28,0.00,,---,0.00,VWS V14.01,2013-07-18 04:50:00,
2013-07-17 21:51:00,78.1,42.4,29.86,ENE,57,0.0,0.0,28,0.00,,---,0.00,VWS V14.01,2013-07-18 04:51:00,
2013-07-17 21:54:00,77.9,42.2,29.86,ENE,57,0.0,0.0,28,0.00,,---,0.00,VWS V14.01,2013-07-18 04:54:00,
2013-07-17 21:55:00,77.9,42.2,29.86,ENE,57,0.0,0.0,28,0.00,,---,0.00,VWS V14.01,2013-07-18 04:55:00,
2013-07-17 21:58:00,77.9,39.3,29.86,NE,34,0.0,0.0,25,0.00,,---,0.00,VWS V14.01,2013-07-18 04:58:00,
2013-07-17 21:59:00,77.9,39.3,29.86,NE,34,0.0,0.0,25,0.00,,---,0.00,VWS V14.01,2013-07-18 04:59:00,
2013-07-17 22:00:00,77.9,39.3,29.86,NE,34,0.0,0.0,25,0.00,,---,0.00,VWS V14.01,2013-07-18 05:00:00,
2013-07-17 22:02:00,77.9,39.3,29.86,NE,34,0.0,0.0,25,0.00,,---,0.00,VWS V14.01,2013-07-18 05:02:00,
2013-07-17 22:04:00,77.9,39.3,29.86,NE,34,0.0,0.0,25,0.00,,---,0.00,VWS V14.01,2013-07-18 05:04:00,
2013-07-17 22:05:00,77.9,39.3,29.86,NE,34,0.0,0.0,25,0.00,,---,0.00,VWS V14.01,2013-07-18 05:05:00,
2013-07-17 22:08:00,77.7,39.1,29.86,NE,34,0.0,0.0,25,0.00,,---,0.00,VWS V14.01,2013-07-18 05:08:00,
2013-07-17 22:10:00,77.7,37.0,29.86,NE,34,0.0,0.0,23,0.00,,---,0.00,VWS V14.01,2013-07-18 05:10:00,
2013-07-17 22:12:00,77.5,39.0,29.86,NE,34,0.0,0.0,25,0.00,,---,0.00,VWS V14.01,2013-07-18 05:12:00,
2013-07-17 22:14:00,77.5,39.0,29.86,NE,34,0.0,0.0,25,0.00,,---,0.00,VWS V14.01,2013-07-18 05:14:00,
2013-07-17 22:15:00,77.4,38.8,29.86,NE,34,0.0,0.0,25,0.00,,---,0.00,VWS V14.01,2013-07-18 05:15:00,
2013-07-17 22:18:00,77.2,41.6,29.86,NE,34,0.0,0.0,28,0.00,,---,0.00,VWS V14.01,2013-07-18 05:18:00,
2013-07-17 22:19:00,77.0,41.4,29.86,NE,34,0.0,0.0,28,0.00,,---,0.00,VWS V14.01,2013-07-18 05:19:00,
2013-07-17 22:20:00,77.0,41.4,29.86,North,357,0.0,0.0,28,0.00,,---,0.00,VWS V14.01,2013-07-18 05:20:00,
2013-07-17 22:22:00,77.0,41.4,29.86,North,357,0.0,0.0,28,0.00,,---,0.00,VWS V14.01,2013-07-18 05:22:00,
2013-07-17 22:23:00,76.8,41.3,29.86,NNE,23,2.7,2.7,28,0.00,,---,0.00,VWS V14.01,2013-07-18 05:23:00,
2013-07-17 22:25:00,76.8,38.4,29.86,North,357,2.2,3.1,25,0.00,,---,0.00,VWS V14.01,2013-07-18 05:25:00,
2013-07-17 22:26:00,76.6,38.2,29.86,NNE,12,0.0,2.2,25,0.00,,---,0.00,VWS V14.01,2013-07-18 05:26:00,
2013-07-17 22:28:00,76.6,38.2,29.86,NNE,12,0.0,2.2,25,0.00,,---,0.00,VWS V14.01,2013-07-18 05:28:00,
2013-07-17 22:29:00,76.5,38.1,29.86,NNE,12,0.0,2.2,25,0.00,,---,0.00,VWS V14.01,2013-07-18 05:29:00,
2013-07-17 22:30:00,76.5,38.1,29.86,NNE,12,0.0,2.2,25,0.00,,---,0.00,VWS V14.01,2013-07-18 05:30:00,
2013-07-17 22:31:00,76.5,38.1,29.86,NNE,12,0.0,0.0,25,0.00,,---,0.00,VWS V14.01,2013-07-18 05:31:00,
2013-07-17 22:33:00,76.3,37.9,29.86,NNE,12,0.0,0.0,25,0.00,,---,0.00,VWS V14.01,2013-07-18 05:33:00,
2013-07-17 22:35:00,76.3,37.9,29.86,NNE,12,0.0,0.0,25,0.00,,---,0.00,VWS V14.01,2013-07-18 05:35:00,
2013-07-17 22:37:00,76.1,37.8,29.86,NNE,12,0.0,0.0,25,0.00,,---,0.00,VWS V14.01,2013-07-18 05:37:00,
2013-07-17 22:39:00,75.9,37.6,29.86,NNE,12,0.0,0.0,25,0.00,,---,0.00,VWS V14.01,2013-07-18 05:39:00,
2013-07-17 22:40:00,75.9,37.6,29.86,NNE,12,0.0,0.0,25,0.00,,---,0.00,VWS V14.01,2013-07-18 05:40:00,
2013-07-17 22:41:00,75.9,37.6,29.86,NNE,12,0.0,0.0,25,0.00,,---,0.00,VWS V14.01,2013-07-18 05:41:00,
2013-07-17 22:43:00,75.9,37.6,29.86,NNE,12,0.0,0.0,25,0.00,,---,0.00,VWS V14.01,2013-07-18 05:43:00,
2013-07-17 22:45:00,75.7,37.5,29.86,NNE,12,0.0,0.0,25,0.00,,---,0.00,VWS V14.01,2013-07-18 05:45:00,
2013-07-17 22:47:00,75.9,40.5,29.86,NNE,12,0.0,0.0,28,0.00,,---,0.00,VWS V14.01,2013-07-18 05:47:00,
2013-07-17 22:49:00,75.9,40.5,29.86,NNE,12,0.0,0.0,28,0.00,,---,0.00,VWS V14.01,2013-07-18 05:49:00,
2013-07-17 22:50:00,75.9,40.5,29.86,NNE,12,0.0,0.0,28,0.00,,---,0.00,VWS V14.01,2013-07-18 05:50:00,
2013-07-17 22:51:00,75.9,37.6,29.86,NNE,12,0.0,0.0,25,0.00,,---,0.00,VWS V14.01,2013-07-18 05:51:00,
2013-07-17 22:54:00,75.9,37.6,29.86,NNE,12,0.0,0.0,25,0.00,,---,0.00,VWS V14.01,2013-07-18 05:54:00,
2013-07-17 22:55:00,75.9,37.6,29.86,NNE,12,0.0,0.0,25,0.00,,---,0.00,VWS V14.01,2013-07-18 05:55:00,
2013-07-17 22:58:00,75.9,37.6,29.86,NNE,12,0.0,0.0,25,0.00,,---,0.00,VWS V14.01,2013-07-18 05:58:00,
2013-07-17 23:00:00,75.9,37.6,29.86,NNE,12,0.0,0.0,25,0.00,,---,0.00,VWS V14.01,2013-07-18 06:00:00,
2013-07-17 23:01:00,75.7,37.5,29.86,NNE,12,0.0,0.0,25,0.00,,---,0.00,VWS V14.01,2013-07-18 06:01:00,
2013-07-17 23:05:00,75.7,40.3,29.86,NNE,12,0.0,0.0,28,0.00,,---,0.00,VWS V14.01,2013-07-18 06:05:00,
2013-07-17 23:06:00,75.7,40.3,29.86,NNE,12,0.0,0.0,28,0.00,,---,0.00,VWS V14.01,2013-07-18 06:06:00,
2013-07-17 23:08:00,75.6,40.2,29.86,NNE,12,0.0,0.0,28,0.00,,---,0.00,VWS V14.01,2013-07-18 06:08:00,
2013-07-17 23:09:00,75.6,40.2,29.86,NNE,12,0.0,0.0,28,0.00,,---,0.00,VWS V14.01,2013-07-18 06:09:00,
2013-07-17 23:10:00,75.6,40.2,29.86,NNE,12,0.0,0.0,28,0.00,,---,0.00,VWS V14.01,2013-07-18 06:10:00,
2013-07-17 23:12:00,75.6,40.2,29.86,NNE,13,0.0,0.0,28,0.00,,---,0.00,VWS V14.01,2013-07-18 06:12:00,
2013-07-17 23:14:00,75.4,40.0,29.86,NNE,33,0.0,0.0,28,0.00,,---,0.00,VWS V14.01,2013-07-18 06:14:00,
2013-07-17 23:15:00,75.4,40.0,29.86,NNE,33,0.0,0.0,28,0.00,,---,0.00,VWS V14.01,2013-07-18 06:15:00,
2013-07-17 23:19:00,75.0,42.4,29.86,NNE,22,0.0,0.0,31,0.00,,---,0.00,VWS V14.01,2013-07-18 06:19:00,
2013-07-17 23:20:00,75.0,42.4,29.86,NNE,22,0.0,0.0,31,0.00,,---,0.00,VWS V14.01,2013-07-18 06:20:00,
2013-07-17 23:24:00,72.3,46.0,29.98,North,11,0.0,0.0,39,0.00,,---,0.00,VWS V14.01,2013-07-18 06:24:00,
2013-07-17 23:25:00,74.5,41.9,29.86,NE,46,0.0,0.0,31,0.00,,---,0.00,VWS V14.01,2013-07-18 06:25:00,
2013-07-17 23:26:00,74.5,41.9,29.86,NE,45,4.0,4.0,31,0.00,,---,0.00,VWS V14.01,2013-07-18 06:26:00,
2013-07-17 23:28:00,74.3,41.7,29.86,NE,40,4.5,4.9,31,0.00,,---,0.00,VWS V14.01,2013-07-18 06:28:00,
2013-07-17 23:30:00,74.1,41.6,29.86,ENE,69,2.7,4.9,31,0.00,,---,0.00,VWS V14.01,2013-07-18 06:30:00,
2013-07-17 23:34:00,72.7,45.6,29.98,North,11,0.0,0.0,38,0.00,,---,0.00,VWS V14.01,2013-07-18 06:34:00,
2013-07-17 23:35:00,73.9,41.4,29.86,NNE,15,3.1,4.9,31,0.00,,---,0.00,VWS V14.01,2013-07-18 06:35:00,
2013-07-17 23:36:00,73.9,41.4,29.86,NNE,15,2.7,3.1,31,0.00,,---,0.00,VWS V14.01,2013-07-18 06:36:00,
2013-07-17 23:39:00,72.5,46.2,29.98,North,11,0.0,0.0,39,0.00,,---,0.00,VWS V14.01,2013-07-18 06:39:00,
2013-07-17 23:40:00,73.8,41.3,29.86,NNE,15,3.1,3.6,31,0.00,,---,0.00,VWS V14.01,2013-07-18 06:40:00,
2013-07-17 23:42:00,73.8,41.3,29.86,NNE,15,2.2,3.1,31,0.00,,---,0.00,VWS V14.01,2013-07-18 06:42:00,
2013-07-17 23:44:00,73.8,41.3,29.86,North,0,2.7,3.6,31,0.00,,---,0.00,VWS V14.01,2013-07-18 06:44:00,
2013-07-17 23:45:00,73.8,38.7,29.86,North,0,2.7,3.6,28,0.00,,---,0.00,VWS V14.01,2013-07-18 06:45:00,
2013-07-17 23:46:00,71.6,46.7,29.98,NNE,29,2.2,3.1,41,0.00,,---,0.00,VWS V14.01,2013-07-18 06:46:00,
2013-07-17 23:48:00,73.8,38.7,29.86,North,0,0.0,2.7,28,0.00,,---,0.00,VWS V14.01,2013-07-18 06:48:00,
2013-07-17 23:50:00,73.9,38.8,29.86,North,357,0.0,2.7,28,0.00,,---,0.00,VWS V14.01,2013-07-18 06:50:00,
2013-07-17 23:52:00,73.9,41.4,29.86,North,7,0.0,0.0,31,0.00,,---,0.00,VWS V14.01,2013-07-18 06:52:00,
2013-07-17 23:54:00,70.7,46.5,29.98,North,357,0.0,3.1,42,0.00,,---,0.00,VWS V14.01,2013-07-18 06:54:00,
2013-07-17 23:55:00,74.1,39.0,29.86,NNE,15,2.2,4.0,28,0.00,,---,0.00,VWS V14.01,2013-07-18 06:55:00,